createdAt,value
2024-03-01T00:00:32.525Z,43.81
2024-03-01T00:02:35.270Z,43.53
2024-03-01T00:04:38.139Z,44.16
2024-03-01T00:06:40.864Z,44.61
2024-03-01T00:08:43.669Z,44.49
2024-03-01T00:10:46.657Z,43.01
2024-03-01T00:12:49.606Z,43.15
2024-03-01T00:14:56.958Z,42.78
2024-03-01T00:16:59.726Z,42.80
2024-03-01T00:19:02.492Z,43.58
2024-03-01T00:21:05.518Z,43.18
2024-03-01T00:23:08.242Z,44.21
2024-03-01T00:25:11.067Z,43.62
2024-03-01T00:27:13.853Z,43.92
2024-03-01T00:29:16.582Z,44.30
2024-03-01T00:31:19.391Z,44.04
2024-03-01T00:33:22.220Z,45.29
2024-03-01T00:35:24.970Z,45.90
2024-03-01T00:37:27.827Z,44.13
2024-03-01T00:39:31.681Z,44.76
2024-03-01T00:41:34.676Z,45.03
2024-03-01T00:43:37.633Z,44.66
2024-03-01T00:45:40.986Z,45.23
2024-03-01T00:47:47.316Z,45.75
2024-03-01T00:49:51.882Z,45.70
2024-03-01T00:51:54.803Z,45.23
2024-03-01T00:54:00.133Z,45.72
2024-03-01T00:56:03.664Z,45.14
2024-03-01T00:58:09.101Z,46.06
2024-03-01T01:00:13.146Z,45.40
2024-03-01T01:02:15.938Z,44.13
2024-03-01T01:04:18.696Z,44.69
2024-03-01T01:06:21.446Z,45.95
2024-03-01T01:08:25.727Z,44.54
2024-03-01T01:10:29.937Z,44.39
2024-03-01T01:12:32.938Z,45.02
2024-03-01T01:14:36.008Z,44.74
2024-03-01T01:16:38.752Z,44.45
2024-03-01T01:18:41.489Z,46.19
2024-03-01T01:20:45.891Z,45.03
2024-03-01T01:22:48.666Z,44.45
2024-03-01T01:24:51.526Z,44.64
2024-03-01T01:26:54.276Z,45.42
2024-03-01T01:28:58.082Z,44.29
2024-03-01T01:31:01.893Z,44.38
2024-03-01T01:33:05.097Z,44.25
2024-03-01T01:35:08.186Z,44.06
2024-03-01T01:37:11.050Z,42.71
2024-03-01T01:39:13.977Z,43.74
2024-03-01T01:41:16.731Z,42.37
2024-03-01T01:43:19.544Z,43.54
2024-03-01T01:45:22.406Z,42.97
2024-03-01T01:47:25.573Z,42.37
2024-03-01T01:49:30.298Z,42.24
2024-03-01T01:51:34.586Z,42.44
2024-03-01T01:53:38.135Z,41.42
2024-03-01T01:55:42.525Z,41.75
2024-03-01T01:57:50.228Z,42.62
2024-03-01T02:00:02.623Z,42.29
2024-03-01T02:02:15.477Z,41.50
2024-03-01T02:04:18.264Z,40.55
2024-03-01T02:06:23.872Z,41.10
2024-03-01T02:08:26.692Z,41.85
2024-03-01T02:10:29.458Z,43.88
2024-03-01T02:12:32.480Z,42.19
2024-03-01T02:14:35.225Z,44.38
2024-03-01T02:16:38.060Z,44.06
2024-03-01T02:18:40.880Z,43.69
2024-03-01T02:20:59.893Z,43.80
2024-03-01T02:23:06.309Z,43.42
2024-03-01T02:25:09.163Z,44.39
2024-03-01T02:27:11.962Z,44.07
2024-03-01T02:29:14.765Z,42.57
2024-03-01T02:31:17.938Z,42.10
2024-03-01T02:33:21.550Z,42.32
2024-03-01T02:35:30.374Z,42.10
2024-03-01T02:37:33.250Z,41.65
2024-03-01T02:39:36.019Z,42.93
2024-03-01T02:41:38.743Z,41.77
2024-03-01T02:43:41.474Z,43.02
2024-03-01T02:45:45.248Z,41.96
2024-03-01T02:47:48.113Z,41.95
2024-03-01T02:49:50.901Z,42.62
2024-03-01T02:51:53.979Z,43.59
2024-03-01T02:53:57.144Z,41.95
2024-03-01T02:55:59.922Z,42.66
2024-03-01T02:58:02.859Z,42.29
2024-03-01T03:00:12.451Z,43.05
2024-03-01T03:02:15.281Z,42.97
2024-03-01T03:04:19.166Z,42.55
2024-03-01T03:06:24.325Z,42.01
2024-03-01T03:08:27.085Z,44.05
2024-03-01T03:10:29.844Z,42.05
2024-03-01T03:12:32.584Z,41.42
2024-03-01T03:14:35.331Z,42.95
2024-03-01T03:16:38.159Z,41.17
2024-03-01T03:18:41.244Z,42.23
2024-03-01T03:20:43.966Z,42.41
2024-03-01T03:22:47.326Z,42.22
2024-03-01T03:24:50.276Z,41.65
2024-03-01T03:26:53.067Z,41.32
2024-03-01T03:28:55.848Z,41.75
2024-03-01T03:30:58.722Z,41.37
2024-03-01T03:33:03.916Z,41.99
2024-03-01T03:35:06.891Z,41.37
2024-03-01T03:37:10.485Z,41.56
2024-03-01T03:39:13.738Z,41.71
2024-03-01T03:41:16.706Z,41.48
2024-03-01T03:43:19.479Z,40.88
2024-03-01T03:45:22.224Z,40.81
2024-03-01T03:47:24.980Z,41.04
2024-03-01T03:49:27.857Z,41.41
2024-03-01T03:51:31.223Z,40.97
2024-03-01T03:53:34.115Z,40.65
2024-03-01T03:55:37.154Z,40.37
2024-03-01T03:57:39.983Z,40.13
2024-03-01T03:59:42.887Z,39.89
2024-03-01T04:01:45.701Z,39.98
2024-03-01T04:03:49.116Z,39.60
2024-03-01T04:05:51.898Z,39.76
2024-03-01T04:07:54.648Z,40.01
2024-03-01T04:09:58.884Z,39.47
2024-03-01T04:12:06.928Z,38.90
2024-03-01T04:14:13.088Z,39.44
2024-03-01T04:16:15.902Z,38.44
2024-03-01T04:18:19.056Z,39.35
2024-03-01T04:20:21.963Z,38.22
2024-03-01T04:22:25.726Z,38.62
2024-03-01T04:24:28.510Z,39.37
2024-03-01T04:26:31.242Z,39.43
2024-03-01T04:28:34.039Z,38.10
2024-03-01T04:30:36.795Z,39.14
2024-03-01T04:32:39.706Z,38.68
2024-03-01T04:34:42.593Z,38.56
2024-03-01T04:36:46.087Z,38.65
2024-03-01T04:38:48.825Z,37.60
2024-03-01T04:40:51.609Z,38.38
2024-03-01T04:42:54.383Z,37.60
2024-03-01T04:44:57.196Z,38.60
2024-03-01T04:46:59.938Z,38.71
2024-03-01T04:49:02.763Z,39.18
2024-03-01T04:51:14.812Z,39.22
2024-03-01T04:53:17.553Z,38.49
2024-03-01T04:55:20.693Z,37.85
2024-03-01T04:57:23.494Z,37.11
2024-03-01T04:59:26.266Z,37.50
2024-03-01T05:01:30.655Z,37.02
2024-03-01T05:03:33.411Z,36.11
2024-03-01T05:05:37.488Z,37.49
2024-03-01T05:07:40.212Z,36.58
2024-03-01T05:09:44.326Z,36.71
2024-03-01T05:11:47.230Z,36.23
2024-03-01T05:13:49.962Z,37.13
2024-03-01T05:15:53.834Z,37.93
2024-03-01T05:17:56.669Z,37.41
2024-03-01T05:19:59.904Z,37.78
2024-03-01T05:22:02.727Z,36.95
2024-03-01T05:24:07.159Z,37.80
2024-03-01T05:26:11.338Z,37.63
2024-03-01T05:28:14.095Z,37.29
2024-03-01T05:30:32.165Z,36.98
2024-03-01T05:32:46.778Z,38.04
2024-03-01T05:34:52.641Z,36.89
2024-03-01T05:36:55.452Z,36.39
2024-03-01T05:38:58.202Z,36.57
2024-03-01T05:41:01.588Z,36.41
2024-03-01T05:43:05.391Z,37.15
2024-03-01T05:45:09.843Z,37.75
2024-03-01T05:47:12.740Z,38.32
2024-03-01T05:49:15.611Z,37.06
2024-03-01T05:51:18.333Z,38.35
2024-03-01T05:53:21.148Z,38.14
2024-03-01T05:55:25.528Z,38.43
2024-03-01T05:57:28.656Z,38.59
2024-03-01T05:59:31.407Z,38.95
2024-03-01T06:01:35.836Z,38.15
2024-03-01T06:03:39.747Z,38.10
2024-03-01T06:05:42.474Z,37.77
2024-03-01T06:07:47.520Z,38.62
2024-03-01T06:09:50.333Z,38.63
2024-03-01T06:11:53.639Z,37.60
2024-03-01T06:13:56.362Z,37.51
2024-03-01T06:16:00.340Z,38.48
2024-03-01T06:18:04.446Z,38.29
2024-03-01T06:20:09.516Z,38.56
2024-03-01T06:22:15.156Z,38.09
2024-03-01T06:24:17.962Z,37.56
2024-03-01T06:26:20.706Z,37.58
2024-03-01T06:28:24.230Z,37.17
2024-03-01T06:30:26.996Z,37.06
2024-03-01T06:32:29.761Z,37.28
2024-03-01T06:34:32.870Z,36.50
2024-03-01T06:36:35.641Z,36.76
2024-03-01T06:38:39.841Z,36.95
2024-03-01T06:40:42.649Z,39.35
2024-03-01T06:44:48.771Z,40.44
2024-03-01T06:46:51.607Z,39.45
2024-03-01T06:48:54.414Z,38.60
2024-03-01T06:50:57.419Z,44.75
2024-03-01T06:53:00.972Z,40.85
2024-03-01T06:55:05.578Z,42.46
2024-03-01T06:57:08.334Z,40.28
2024-03-01T06:59:12.652Z,39.32
2024-03-01T07:01:19.983Z,41.73
2024-03-01T07:03:23.779Z,41.99
2024-03-01T07:05:26.574Z,39.04
2024-03-01T07:07:29.797Z,40.15
2024-03-01T07:09:33.882Z,40.64
2024-03-01T07:11:36.722Z,38.97
2024-03-01T07:13:39.985Z,37.68
2024-03-01T07:15:42.748Z,37.22
2024-03-01T07:17:45.504Z,36.72
2024-03-01T07:19:48.266Z,36.58
2024-03-01T07:21:51.337Z,35.54
2024-03-01T07:23:57.612Z,41.05
2024-03-01T07:26:02.966Z,46.78
2024-03-01T07:28:07.001Z,56.30
2024-03-01T07:30:10.516Z,57.74
2024-03-01T07:32:13.755Z,60.53
2024-03-01T07:34:17.096Z,54.68
2024-03-01T07:36:19.871Z,40.75
2024-03-01T07:38:22.671Z,41.86
2024-03-01T07:40:25.465Z,45.73
2024-03-01T07:42:28.354Z,43.40
2024-03-01T07:44:31.133Z,45.41
2024-03-01T07:46:35.867Z,39.91
2024-03-01T07:48:40.712Z,39.55
2024-03-01T07:50:45.843Z,37.96
2024-03-01T07:52:48.595Z,37.18
2024-03-01T07:54:51.359Z,37.77
2024-03-01T07:56:54.136Z,36.77
2024-03-01T07:59:05.763Z,35.85
2024-03-01T08:01:09.289Z,37.69
2024-03-01T08:03:12.424Z,37.55
2024-03-01T08:05:15.177Z,36.11
2024-03-01T08:07:18.758Z,36.85
2024-03-01T08:09:33.970Z,36.01
2024-03-01T08:11:47.339Z,37.05
2024-03-01T08:13:50.896Z,36.69
2024-03-01T08:15:53.719Z,37.27
2024-03-01T08:17:57.568Z,37.09
2024-03-01T08:20:00.690Z,36.90
2024-03-01T08:22:16.028Z,37.51
2024-03-01T08:24:24.932Z,36.44
2024-03-01T08:26:27.778Z,35.66
2024-03-01T08:28:32.377Z,37.50
2024-03-01T08:30:35.342Z,36.16
2024-03-01T08:32:49.933Z,35.15
2024-03-01T08:34:56.259Z,34.85
2024-03-01T08:36:59.461Z,34.57
2024-03-01T08:39:17.104Z,41.95
2024-03-01T08:41:20.803Z,41.28
2024-03-01T08:43:23.707Z,38.99
2024-03-01T08:45:44.410Z,37.81
2024-03-01T08:48:05.061Z,36.35
2024-03-01T08:50:26.908Z,34.78
2024-03-01T08:52:35.277Z,35.85
2024-03-01T08:54:39.394Z,35.45
2024-03-01T08:56:42.150Z,35.31
2024-03-01T08:58:45.902Z,34.23
2024-03-01T09:00:55.234Z,34.43
2024-03-01T09:02:58.143Z,35.48
2024-03-01T09:05:00.946Z,34.80
2024-03-01T09:07:10.511Z,35.23
2024-03-01T09:09:23.344Z,34.90
2024-03-01T09:11:26.160Z,35.89
2024-03-01T09:13:32.364Z,35.91
2024-03-01T09:15:41.977Z,35.18
2024-03-01T09:17:45.100Z,33.90
2024-03-01T09:19:49.091Z,33.75
2024-03-01T09:21:52.922Z,34.00
2024-03-01T09:23:56.369Z,35.01
2024-03-01T09:26:06.920Z,33.15
2024-03-01T09:28:10.733Z,33.55
2024-03-01T09:30:17.432Z,32.32
2024-03-01T09:32:20.405Z,33.19
2024-03-01T09:34:25.411Z,34.08
2024-03-01T09:36:28.434Z,33.27
2024-03-01T09:38:31.260Z,31.95
2024-03-01T09:40:40.669Z,31.47
2024-03-01T09:42:52.688Z,30.97
2024-03-01T09:45:24.011Z,28.69
2024-03-01T09:47:38.029Z,29.61
2024-03-01T09:50:02.568Z,29.64
2024-03-01T09:52:22.055Z,32.66
2024-03-01T09:54:49.901Z,27.85
2024-03-01T09:56:52.780Z,28.37
2024-03-01T09:59:22.548Z,28.73
2024-03-01T10:01:32.782Z,26.65
2024-03-01T10:03:57.122Z,28.22
2024-03-01T10:06:02.670Z,30.14
2024-03-01T10:08:30.487Z,27.15
2024-03-01T10:10:37.629Z,25.27
2024-03-01T10:13:01.351Z,24.71
2024-03-01T10:15:15.707Z,27.51
2024-03-01T10:17:29.094Z,24.93
2024-03-01T10:19:53.408Z,24.76
2024-03-01T10:22:24.902Z,24.58
2024-03-01T10:24:58.658Z,23.33
2024-03-01T10:27:21.332Z,24.12
2024-03-01T10:29:39.321Z,24.94
2024-03-01T10:31:57.814Z,25.74
2024-03-01T10:34:21.074Z,24.83
2024-03-01T10:36:32.142Z,25.95
2024-03-01T10:38:52.745Z,24.92
2024-03-01T10:41:19.242Z,25.20
2024-03-01T10:44:02.758Z,24.68
2024-03-01T10:46:24.853Z,24.28
2024-03-01T10:48:39.494Z,24.94
2024-03-01T10:50:58.521Z,30.47
2024-03-01T10:53:06.367Z,27.99
2024-03-01T10:55:20.569Z,26.10
2024-03-01T10:57:24.980Z,24.55
2024-03-01T11:00:03.602Z,22.66
2024-03-01T11:02:15.866Z,21.30
2024-03-01T11:04:32.996Z,22.26
2024-03-01T11:06:55.773Z,20.90
2024-03-01T11:09:03.655Z,23.12
2024-03-01T11:11:14.403Z,21.35
2024-03-01T11:13:20.941Z,21.91
2024-03-01T11:15:28.017Z,20.73
2024-03-01T11:17:34.429Z,21.04
2024-03-01T11:19:40.210Z,21.22
2024-03-01T11:21:52.711Z,20.00
2024-03-01T11:24:10.874Z,20.61
2024-03-01T11:26:27.348Z,19.71
2024-03-01T11:28:33.922Z,22.92
2024-03-01T11:30:45.682Z,25.90
2024-03-01T11:32:53.227Z,20.99
2024-03-01T11:34:56.032Z,21.82
2024-03-01T11:37:12.475Z,24.91
2024-03-01T11:39:27.069Z,20.69
2024-03-01T11:41:53.949Z,20.16
2024-03-01T11:44:30.925Z,21.80
2024-03-01T11:46:33.723Z,21.84
2024-03-01T11:48:55.005Z,19.76
2024-03-01T11:51:28.367Z,20.95
2024-03-01T11:53:33.858Z,21.10
2024-03-01T11:55:57.738Z,24.28
2024-03-01T11:58:20.853Z,21.94
2024-03-01T12:00:56.895Z,21.25
2024-03-01T12:03:08.832Z,21.31
2024-03-01T12:05:51.882Z,25.07
2024-03-01T12:08:17.394Z,21.30
2024-03-01T12:10:42.905Z,24.73
2024-03-01T12:12:53.599Z,21.62
2024-03-01T12:15:01.863Z,20.89
2024-03-01T12:17:18.171Z,19.77
2024-03-01T12:19:30.931Z,19.89
2024-03-01T12:21:41.622Z,18.88
2024-03-01T12:24:23.221Z,19.45
2024-03-01T12:26:36.016Z,18.43
2024-03-01T12:29:01.430Z,17.95
2024-03-01T12:31:35.883Z,18.16
2024-03-01T12:33:57.694Z,18.85
2024-03-01T12:36:30.306Z,18.89
2024-03-01T12:38:50.375Z,19.63
2024-03-01T12:41:30.647Z,20.16
2024-03-01T12:43:42.451Z,21.66
2024-03-01T12:46:18.520Z,23.22
2024-03-01T12:48:40.404Z,24.95
2024-03-01T12:50:55.430Z,23.65
2024-03-01T12:53:19.249Z,23.54
2024-03-01T12:55:39.829Z,22.95
2024-03-01T12:58:23.372Z,24.63
2024-03-01T13:00:33.125Z,24.64
2024-03-01T13:03:08.504Z,26.65
2024-03-01T13:05:20.224Z,26.09
2024-03-01T13:07:26.690Z,25.21
2024-03-01T13:09:35.779Z,24.65
2024-03-01T13:11:39.611Z,25.10
2024-03-01T13:13:57.241Z,24.65
2024-03-01T13:16:17.360Z,24.21
2024-03-01T13:18:27.187Z,25.16
2024-03-01T13:20:31.283Z,26.61
2024-03-01T13:22:42.711Z,25.90
2024-03-01T13:25:18.682Z,27.91
2024-03-01T13:27:38.182Z,28.51
2024-03-01T13:29:44.343Z,25.86
2024-03-01T13:32:06.066Z,25.91
2024-03-01T13:34:11.371Z,26.55
2024-03-01T13:36:21.847Z,27.37
2024-03-01T13:38:32.468Z,26.71
2024-03-01T13:40:51.918Z,26.93
2024-03-01T13:43:03.762Z,25.89
2024-03-01T13:45:13.718Z,27.04
2024-03-01T13:47:32.376Z,27.59
2024-03-01T13:49:41.428Z,27.45
2024-03-01T13:51:47.263Z,28.40
2024-03-01T13:53:52.379Z,26.72
2024-03-01T13:55:56.312Z,27.02
2024-03-01T13:58:00.411Z,29.42
2024-03-01T14:00:05.138Z,29.31
2024-03-01T14:02:15.229Z,27.69
2024-03-01T14:04:18.099Z,25.47
2024-03-01T14:06:24.895Z,25.75
2024-03-01T14:08:28.256Z,26.20
2024-03-01T14:10:31.203Z,26.48
2024-03-01T14:12:33.990Z,26.34
2024-03-01T14:14:36.895Z,24.36
2024-03-01T14:16:39.766Z,25.12
2024-03-01T14:18:42.515Z,75.73
2024-03-01T14:20:45.314Z,25.19
2024-03-01T14:22:55.664Z,24.62
2024-03-01T14:25:01.141Z,24.25
2024-03-01T14:27:04.440Z,24.18
2024-03-01T14:29:08.753Z,21.10
2024-03-01T14:31:11.619Z,104.56
2024-03-01T14:33:20.442Z,109.44
2024-03-01T14:35:26.183Z,20.56
2024-03-01T14:37:29.675Z,30.00
2024-03-01T14:39:33.345Z,22.17
2024-03-01T14:41:41.716Z,18.44
2024-03-01T14:43:47.681Z,47.13
2024-03-01T14:45:58.124Z,34.75
2024-03-01T14:48:02.092Z,25.19
2024-03-01T14:50:04.945Z,33.12
2024-03-01T14:52:13.684Z,30.04
2024-03-01T14:54:26.332Z,31.46
2024-03-01T14:56:29.082Z,18.07
2024-03-01T14:58:32.554Z,19.25
2024-03-01T15:00:37.207Z,19.95
2024-03-01T15:02:39.951Z,20.18
2024-03-01T15:04:44.563Z,20.80
2024-03-01T15:06:54.515Z,21.73
2024-03-01T15:09:01.887Z,20.49
2024-03-01T15:11:13.425Z,24.16
2024-03-01T15:13:28.566Z,20.20
2024-03-01T15:15:31.659Z,22.01
2024-03-01T15:17:35.743Z,19.89
2024-03-01T15:19:39.809Z,20.61
2024-03-01T15:21:45.553Z,20.07
2024-03-01T15:23:49.678Z,20.38
2024-03-01T15:26:03.658Z,20.18
2024-03-01T15:28:06.697Z,19.85
2024-03-01T15:30:09.915Z,20.35
2024-03-01T15:32:12.643Z,20.15
2024-03-01T15:34:19.407Z,20.74
2024-03-01T15:36:23.554Z,20.63
2024-03-01T15:38:30.141Z,20.12
2024-03-01T15:40:39.310Z,23.05
2024-03-01T15:42:42.472Z,27.93
2024-03-01T15:44:46.226Z,31.05
2024-03-01T15:46:50.431Z,21.28
2024-03-01T15:48:53.669Z,21.15
2024-03-01T15:50:57.733Z,19.98
2024-03-01T15:53:03.163Z,20.89
2024-03-01T15:55:09.008Z,20.62
2024-03-01T15:57:12.151Z,21.21
2024-03-01T15:59:14.902Z,22.38
2024-03-01T16:01:19.158Z,22.79
2024-03-01T16:03:22.718Z,22.52
2024-03-01T16:05:25.975Z,23.07
2024-03-01T16:07:29.375Z,24.02
2024-03-01T16:09:39.196Z,24.99
2024-03-01T16:11:43.751Z,24.69
2024-03-01T16:13:49.025Z,24.69
2024-03-01T16:15:59.554Z,24.21
2024-03-01T16:18:02.646Z,24.41
2024-03-01T16:20:29.690Z,26.71
2024-03-01T16:22:32.522Z,26.84
2024-03-01T16:24:36.973Z,27.37
2024-03-01T16:26:39.840Z,26.45
2024-03-01T16:28:44.555Z,25.92
2024-03-01T16:30:49.567Z,25.27
2024-03-01T16:32:52.662Z,24.06
2024-03-01T16:34:55.439Z,23.19
2024-03-01T16:36:58.267Z,23.34
2024-03-01T16:39:01.706Z,23.75
2024-03-01T16:41:11.970Z,24.98
2024-03-01T16:43:36.469Z,37.28
2024-03-01T16:45:39.924Z,28.29
2024-03-01T16:47:42.702Z,35.15
2024-03-01T16:49:45.532Z,49.29
2024-03-01T16:51:58.882Z,45.51
2024-03-01T16:54:04.610Z,36.23
2024-03-01T16:56:08.648Z,35.89
2024-03-01T16:58:14.120Z,29.62
2024-03-01T17:00:18.259Z,25.78
2024-03-01T17:02:34.658Z,21.33
2024-03-01T17:04:38.007Z,21.72
2024-03-01T17:06:42.249Z,20.60
2024-03-01T17:08:47.122Z,20.55
2024-03-01T17:10:50.461Z,20.35
2024-03-01T17:12:54.918Z,20.63
2024-03-01T17:14:57.649Z,20.44
2024-03-01T17:17:00.400Z,20.66
2024-03-01T17:19:05.929Z,21.29
2024-03-01T17:21:10.977Z,20.86
2024-03-01T17:23:14.733Z,24.14
2024-03-01T17:25:17.985Z,21.43
2024-03-01T17:27:22.298Z,22.38
2024-03-01T17:29:25.950Z,22.09
2024-03-01T17:31:30.073Z,79.79
2024-03-01T17:33:32.827Z,27.17
2024-03-01T17:35:35.957Z,21.95
2024-03-01T17:37:40.244Z,23.00
2024-03-01T17:39:43.008Z,25.34
2024-03-01T17:41:45.726Z,24.87
2024-03-01T17:43:49.811Z,23.64
2024-03-01T17:45:52.589Z,23.94
2024-03-01T17:47:55.326Z,23.43
2024-03-01T17:49:58.150Z,25.17
2024-03-01T17:52:02.334Z,25.15
2024-03-01T17:54:06.469Z,26.24
2024-03-01T17:56:10.788Z,25.35
2024-03-01T17:58:15.050Z,25.45
2024-03-01T18:00:18.287Z,23.98
2024-03-01T18:02:21.313Z,23.02
2024-03-01T18:04:24.140Z,23.98
2024-03-01T18:06:26.996Z,23.65
2024-03-01T18:08:30.534Z,24.21
2024-03-01T18:10:33.614Z,25.55
2024-03-01T18:12:36.535Z,25.72
2024-03-01T18:14:39.350Z,25.61
2024-03-01T18:16:42.523Z,45.88
2024-03-01T18:18:45.625Z,27.08
2024-03-01T18:20:48.528Z,29.57
2024-03-01T18:22:51.344Z,26.85
2024-03-01T18:24:54.174Z,27.72
2024-03-01T18:26:58.288Z,27.16
2024-03-01T18:29:02.859Z,31.56
2024-03-01T18:31:06.855Z,26.46
2024-03-01T18:33:09.696Z,26.88
2024-03-01T18:35:12.500Z,27.63
2024-03-01T18:37:16.562Z,27.91
2024-03-01T18:39:19.369Z,28.15
2024-03-01T18:41:23.298Z,27.03
2024-03-01T18:43:26.612Z,27.33
2024-03-01T18:45:29.809Z,28.58
2024-03-01T18:47:33.452Z,28.68
2024-03-01T18:49:41.367Z,28.98
2024-03-01T18:51:45.510Z,28.47
2024-03-01T18:53:48.762Z,29.35
2024-03-01T18:55:51.914Z,30.18
2024-03-01T18:57:54.753Z,29.88
2024-03-01T18:59:58.411Z,29.98
2024-03-01T19:02:05.548Z,29.96
2024-03-01T19:04:09.389Z,30.30
2024-03-01T19:06:12.255Z,29.85
2024-03-01T19:08:16.110Z,30.62
2024-03-01T19:10:19.648Z,30.48
2024-03-01T19:12:24.379Z,29.92
2024-03-01T19:14:27.251Z,30.38
2024-03-01T19:16:33.062Z,31.27
2024-03-01T19:18:36.438Z,34.05
2024-03-01T19:20:39.761Z,37.54
2024-03-01T19:22:43.375Z,30.43
2024-03-01T19:24:47.477Z,30.98
2024-03-01T19:26:53.567Z,30.58
2024-03-01T19:28:59.194Z,30.87
2024-03-01T19:31:03.909Z,30.28
2024-03-01T19:33:09.427Z,29.48
2024-03-01T19:35:14.297Z,29.96
2024-03-01T19:37:18.498Z,30.81
2024-03-01T19:39:22.565Z,30.19
2024-03-01T19:41:27.524Z,30.42
2024-03-01T19:43:30.418Z,30.45
2024-03-01T19:45:33.707Z,31.06
2024-03-01T19:47:37.092Z,30.45
2024-03-01T19:49:40.680Z,31.31
2024-03-01T19:51:45.367Z,31.39
2024-03-01T19:53:48.730Z,31.39
2024-03-01T19:55:52.147Z,31.04
2024-03-01T19:57:56.529Z,31.22
2024-03-01T20:00:02.669Z,31.47
2024-03-01T20:02:09.435Z,32.24
2024-03-01T20:04:12.866Z,88.52
2024-03-01T20:06:16.191Z,52.43
2024-03-01T20:08:19.720Z,50.36
2024-03-01T20:10:27.367Z,33.99
2024-03-01T20:12:30.805Z,32.64
2024-03-01T20:14:34.278Z,32.55
2024-03-01T20:16:37.768Z,33.65
2024-03-01T20:18:44.441Z,32.88
2024-03-01T20:20:47.902Z,32.55
2024-03-01T20:22:51.507Z,33.19
2024-03-01T20:24:55.229Z,32.91
2024-03-01T20:26:58.079Z,31.95
2024-03-01T20:29:01.526Z,32.57
2024-03-01T20:31:06.458Z,32.68
2024-03-01T20:33:09.817Z,32.93
2024-03-01T20:35:13.641Z,33.11
2024-03-01T20:37:17.019Z,32.59
2024-03-01T20:39:21.432Z,32.94
2024-03-01T20:41:24.293Z,34.55
2024-03-01T20:43:27.920Z,33.47
2024-03-01T20:45:31.521Z,34.55
2024-03-01T20:47:34.948Z,34.35
2024-03-01T20:49:38.813Z,33.50
2024-03-01T20:51:42.136Z,34.34
2024-03-01T20:53:45.090Z,32.11
2024-03-01T20:55:48.121Z,31.61
2024-03-01T20:57:52.211Z,31.74
2024-03-01T20:59:58.676Z,31.82
2024-03-01T21:02:01.692Z,32.72
2024-03-01T21:04:05.122Z,32.01
2024-03-01T21:06:08.594Z,32.44
2024-03-01T21:08:11.504Z,31.37
2024-03-01T21:10:17.273Z,31.35
2024-03-01T21:12:20.124Z,32.61
2024-03-01T21:14:24.629Z,31.53
2024-03-01T21:16:28.008Z,31.98
2024-03-01T21:18:31.299Z,31.43
2024-03-01T21:20:34.417Z,32.53
2024-03-01T21:24:47.296Z,32.35
2024-03-01T21:26:50.437Z,32.16
2024-03-01T21:28:53.664Z,32.26
2024-03-01T21:30:56.487Z,31.55
2024-03-01T21:33:02.559Z,31.20
2024-03-01T21:35:06.286Z,31.34
2024-03-01T21:37:09.059Z,31.25
2024-03-01T21:39:11.992Z,31.71
2024-03-01T21:41:16.454Z,30.88
2024-03-01T21:43:19.217Z,31.33
2024-03-01T21:45:22.576Z,30.79
2024-03-01T21:47:25.482Z,30.39
2024-03-01T21:49:28.218Z,32.11
2024-03-01T21:51:30.972Z,35.05
2024-03-01T21:53:33.749Z,33.53
2024-03-01T21:55:36.633Z,32.40
2024-03-01T21:57:39.518Z,32.92
2024-03-01T21:59:42.324Z,30.51
2024-03-01T22:01:45.105Z,30.17
2024-03-01T22:03:47.862Z,30.12
2024-03-01T22:05:50.808Z,30.55
2024-03-01T22:08:06.911Z,30.74
2024-03-01T22:10:14.154Z,30.06
2024-03-01T22:12:16.902Z,30.81
2024-03-01T22:14:20.025Z,30.40
2024-03-01T22:16:22.778Z,30.88
2024-03-01T22:18:25.595Z,30.33
2024-03-01T22:20:28.344Z,30.47
2024-03-01T22:22:31.121Z,30.36
2024-03-01T22:24:34.681Z,30.53
2024-03-01T22:26:37.983Z,31.64
2024-03-01T22:28:47.153Z,31.92
2024-03-01T22:30:50.027Z,31.46
2024-03-01T22:32:54.349Z,32.78
2024-03-01T22:34:57.250Z,33.54
2024-03-01T22:37:00.126Z,33.44
2024-03-01T22:39:03.274Z,34.57
2024-03-01T22:41:06.141Z,32.95
2024-03-01T22:43:08.900Z,33.51
2024-03-01T22:45:12.077Z,33.12
2024-03-01T22:47:15.841Z,33.05
2024-03-01T22:51:40.481Z,34.53
2024-03-01T22:53:43.228Z,34.33
2024-03-01T22:55:47.513Z,33.95
2024-03-01T22:57:50.869Z,33.76
2024-03-01T23:00:19.568Z,34.00
2024-03-01T23:02:23.335Z,34.52
2024-03-01T23:04:37.007Z,35.83
2024-03-01T23:06:39.925Z,34.21
2024-03-01T23:08:52.444Z,34.02
2024-03-01T23:10:58.058Z,34.35
2024-03-01T23:13:01.522Z,33.98
2024-03-01T23:15:04.588Z,34.69
2024-03-01T23:17:08.544Z,33.70
2024-03-01T23:19:11.314Z,33.60
2024-03-01T23:21:14.102Z,34.09
2024-03-01T23:23:19.207Z,34.90
2024-03-01T23:25:21.939Z,35.76
2024-03-01T23:27:24.740Z,36.32
2024-03-01T23:29:27.541Z,35.45
2024-03-01T23:31:30.276Z,35.60
2024-03-01T23:33:33.101Z,35.32
2024-03-01T23:35:36.833Z,36.02
2024-03-01T23:37:39.586Z,36.75
2024-03-01T23:39:42.348Z,35.84
2024-03-01T23:41:45.101Z,36.40
2024-03-01T23:43:47.920Z,36.53
2024-03-01T23:45:51.010Z,36.11
2024-03-01T23:47:54.063Z,36.87
2024-03-01T23:49:56.827Z,36.11
2024-03-01T23:51:59.681Z,36.74
2024-03-01T23:54:02.499Z,36.98
2024-03-01T23:56:05.408Z,36.52
2024-03-01T23:58:08.234Z,37.16
